createdAt,value
2023-03-31T00:01:16.022Z,0.88
2023-03-31T00:06:19.285Z,0.82
2023-03-31T00:11:22.920Z,1.98
2023-03-31T00:16:25.915Z,0.80
2023-03-31T00:21:35.151Z,1.10
2023-03-31T00:26:38.348Z,0.65
2023-03-31T00:31:41.344Z,0.75
2023-03-31T00:36:48.035Z,0.93
2023-03-31T00:41:51.134Z,0.82
2023-03-31T00:46:53.951Z,0.90
2023-03-31T00:52:02.795Z,1.95
2023-03-31T00:57:07.187Z,0.45
2023-03-31T01:02:10.253Z,0.60
2023-03-31T01:07:26.035Z,0.60
2023-03-31T01:12:29.172Z,1.00
2023-03-31T01:17:32.277Z,1.27
2023-03-31T01:28:29.985Z,0.52
2023-03-31T01:33:33.443Z,0.82
2023-03-31T01:38:54.540Z,0.50
2023-03-31T01:44:15.914Z,1.25
2023-03-31T01:49:21.526Z,0.75
2023-03-31T01:54:34.766Z,0.77
2023-03-31T01:59:59.854Z,1.70
2023-03-31T02:05:27.191Z,0.35
2023-03-31T02:10:31.347Z,0.35
2023-03-31T02:20:43.145Z,0.60
2023-03-31T02:25:53.971Z,0.47
2023-03-31T02:31:23.087Z,0.80
2023-03-31T02:36:26.088Z,0.47
2023-03-31T02:41:28.896Z,0.80
2023-03-31T02:46:33.028Z,0.80
2023-03-31T02:51:55.531Z,0.98
2023-03-31T02:57:43.637Z,0.80
2023-03-31T03:03:05.004Z,0.60
2023-03-31T03:08:28.143Z,0.30
2023-03-31T03:13:52.218Z,0.60
2023-03-31T03:18:59.333Z,0.47
2023-03-31T03:24:02.165Z,0.95
2023-03-31T03:29:04.936Z,0.50
2023-03-31T03:34:07.878Z,1.30
2023-03-31T03:39:10.694Z,2.50
2023-03-31T03:44:13.555Z,1.63
2023-03-31T03:49:16.409Z,1.08
2023-03-31T03:54:19.260Z,0.95
2023-03-31T03:59:22.095Z,0.85
2023-03-31T04:04:24.997Z,0.50
2023-03-31T04:09:28.024Z,1.58
2023-03-31T04:14:30.774Z,0.82
2023-03-31T04:19:33.532Z,0.52
2023-03-31T04:24:39.093Z,0.40
2023-03-31T04:29:42.970Z,0.40
2023-03-31T04:34:46.936Z,0.70
2023-03-31T04:39:51.003Z,0.82
2023-03-31T04:44:53.709Z,1.13
2023-03-31T04:49:56.403Z,0.90
2023-03-31T04:54:59.165Z,0.60
2023-03-31T05:00:08.246Z,0.55
2023-03-31T05:05:12.575Z,0.98
2023-03-31T05:10:15.382Z,0.60
2023-03-31T05:15:18.361Z,1.00
2023-03-31T05:20:21.932Z,0.93
2023-03-31T05:25:24.698Z,1.15
2023-03-31T05:30:28.103Z,0.65
2023-03-31T05:35:31.094Z,0.63
2023-03-31T05:40:33.905Z,0.40
2023-03-31T05:45:37.849Z,0.43
2023-03-31T05:50:40.747Z,0.40
2023-03-31T05:55:43.466Z,0.50
2023-03-31T06:00:46.277Z,0.70
2023-03-31T06:05:49.701Z,0.88
2023-03-31T06:10:52.590Z,1.60
2023-03-31T06:15:59.824Z,1.35
2023-03-31T06:21:02.857Z,1.13
2023-03-31T06:26:18.077Z,0.75
2023-03-31T06:31:22.918Z,0.75
2023-03-31T06:36:25.998Z,0.57
2023-03-31T06:41:28.942Z,0.85
2023-03-31T06:46:31.809Z,0.70
2023-03-31T06:51:34.574Z,0.55
2023-03-31T06:56:37.436Z,0.60
2023-03-31T07:01:42.938Z,0.47
2023-03-31T07:06:45.940Z,1.50
2023-03-31T07:11:48.738Z,0.80
2023-03-31T07:16:51.588Z,0.20
2023-03-31T07:21:54.660Z,0.60
2023-03-31T07:26:57.335Z,0.38
2023-03-31T07:32:00.154Z,0.70
2023-03-31T07:37:02.983Z,0.85
2023-03-31T07:42:05.793Z,2.33
2023-03-31T07:47:08.621Z,0.60
2023-03-31T07:52:11.677Z,0.80
2023-03-31T07:57:18.040Z,0.45
2023-03-31T08:02:20.954Z,0.30
2023-03-31T08:07:24.083Z,0.95
2023-03-31T08:12:26.929Z,1.10
2023-03-31T08:17:29.670Z,0.28
2023-03-31T08:22:32.482Z,0.50
2023-03-31T08:27:36.875Z,1.23
2023-03-31T08:32:39.754Z,0.40
2023-03-31T08:37:42.916Z,0.50
2023-03-31T08:42:50.562Z,0.40
2023-03-31T08:47:57.876Z,0.40
2023-03-31T08:53:19.996Z,1.02
2023-03-31T08:58:31.899Z,0.40
2023-03-31T09:04:02.207Z,0.53
2023-03-31T09:09:11.669Z,1.05
2023-03-31T09:14:17.490Z,1.10
2023-03-31T09:19:39.364Z,0.22
2023-03-31T09:24:48.256Z,0.63
2023-03-31T09:29:59.106Z,0.47
2023-03-31T09:35:18.366Z,0.52
2023-03-31T09:40:23.549Z,0.68
2023-03-31T09:45:26.451Z,0.32
2023-03-31T09:50:31.215Z,0.52
2023-03-31T09:55:44.122Z,0.85
2023-03-31T10:01:07.336Z,1.83
2023-03-31T10:06:11.392Z,1.03
2023-03-31T10:11:14.569Z,0.63
2023-03-31T10:16:29.439Z,0.38
2023-03-31T10:21:38.054Z,0.43
2023-03-31T10:26:41.420Z,0.52
2023-03-31T10:31:44.315Z,0.60
2023-03-31T10:36:49.253Z,0.45
2023-03-31T10:41:53.098Z,0.40
2023-03-31T10:46:56.191Z,0.70
2023-03-31T10:52:01.378Z,0.40
2023-03-31T10:57:06.579Z,0.63
2023-03-31T11:02:36.628Z,0.60
2023-03-31T11:08:01.389Z,1.05
2023-03-31T11:13:41.559Z,0.47
2023-03-31T11:18:51.612Z,0.30
2023-03-31T11:24:33.237Z,1.27
2023-03-31T11:29:47.441Z,0.80
2023-03-31T11:35:14.714Z,2.15
2023-03-31T11:40:32.647Z,1.02
2023-03-31T11:45:39.388Z,0.82
2023-03-31T11:50:44.286Z,0.38
2023-03-31T11:55:49.431Z,0.77
2023-03-31T12:01:11.220Z,1.77
2023-03-31T12:06:19.895Z,0.82
2023-03-31T12:11:29.192Z,0.80
2023-03-31T12:16:41.547Z,1.52
2023-03-31T12:21:49.635Z,1.15
2023-03-31T12:27:15.326Z,1.52
2023-03-31T12:32:21.830Z,0.88
2023-03-31T12:38:04.140Z,0.85
2023-03-31T12:43:24.788Z,0.68
2023-03-31T12:48:44.525Z,0.35
2023-03-31T12:54:08.077Z,0.55
2023-03-31T12:59:34.000Z,0.68
2023-03-31T13:04:37.820Z,1.13
2023-03-31T13:09:43.093Z,0.73
2023-03-31T13:14:48.755Z,0.73
2023-03-31T13:19:52.074Z,0.57
2023-03-31T13:24:54.952Z,1.07
2023-03-31T13:29:58.045Z,1.48
2023-03-31T13:35:07.341Z,0.85
2023-03-31T13:40:19.218Z,0.90
2023-03-31T13:45:57.536Z,0.32
2023-03-31T13:51:21.008Z,0.70
2023-03-31T13:56:58.472Z,0.88
2023-03-31T14:02:37.494Z,0.77
2023-03-31T14:08:15.079Z,0.98
2023-03-31T14:13:25.764Z,0.98
2023-03-31T14:18:34.639Z,1.70
2023-03-31T14:24:01.796Z,0.85
2023-03-31T14:29:20.034Z,1.75
2023-03-31T14:34:54.086Z,0.65
2023-03-31T14:39:58.501Z,0.90
2023-03-31T14:50:18.351Z,1.63
2023-03-31T14:55:26.603Z,0.98
2023-03-31T15:00:33.609Z,1.67
2023-03-31T15:05:38.545Z,1.92
2023-03-31T15:10:44.596Z,1.23
2023-03-31T15:15:47.539Z,1.50
2023-03-31T15:20:51.092Z,1.23
2023-03-31T15:26:08.529Z,1.00
2023-03-31T15:31:11.889Z,1.00
2023-03-31T15:36:15.279Z,0.80
2023-03-31T15:41:18.140Z,0.55
2023-03-31T15:46:26.497Z,1.35
2023-03-31T15:51:37.588Z,0.95
2023-03-31T15:56:45.777Z,1.35
2023-03-31T16:01:50.403Z,1.70
2023-03-31T16:07:07.925Z,1.73
2023-03-31T16:12:36.599Z,0.60
2023-03-31T16:17:49.389Z,2.28
2023-03-31T16:22:54.684Z,0.98
2023-03-31T16:28:01.728Z,1.88
2023-03-31T16:33:07.788Z,2.53
2023-03-31T16:38:12.766Z,2.22
2023-03-31T16:43:20.056Z,1.25
2023-03-31T16:48:24.535Z,1.80
2023-03-31T16:53:29.338Z,1.65
2023-03-31T16:58:32.267Z,3.35
2023-03-31T17:03:37.144Z,2.90
2023-03-31T17:08:40.248Z,1.95
2023-03-31T17:13:44.062Z,3.63
2023-03-31T17:18:46.874Z,2.63
2023-03-31T17:23:50.142Z,2.00
2023-03-31T17:28:53.018Z,1.40
2023-03-31T17:33:57.394Z,1.30
2023-03-31T17:39:00.676Z,2.05
2023-03-31T17:44:05.002Z,1.57
2023-03-31T17:49:08.677Z,1.88
2023-03-31T17:54:11.877Z,1.83
2023-03-31T17:59:14.594Z,1.00
2023-03-31T18:04:17.662Z,1.73
2023-03-31T18:09:20.891Z,1.13
2023-03-31T18:14:23.613Z,2.87
2023-03-31T18:19:26.255Z,3.60
2023-03-31T18:24:29.173Z,0.50
2023-03-31T18:29:32.167Z,1.85
2023-03-31T18:34:37.069Z,1.17
2023-03-31T18:39:39.772Z,2.47
2023-03-31T18:44:42.541Z,3.42
2023-03-31T18:49:45.246Z,1.67
2023-03-31T18:54:48.109Z,2.42
2023-03-31T18:59:50.866Z,3.63
2023-03-31T19:04:53.841Z,4.22
2023-03-31T19:09:56.720Z,5.73
2023-03-31T19:14:59.475Z,4.65
2023-03-31T19:20:02.315Z,5.22
2023-03-31T19:25:06.430Z,5.13
2023-03-31T19:30:17.728Z,3.80
2023-03-31T19:35:20.616Z,3.75
2023-03-31T19:40:23.634Z,4.10
2023-03-31T19:45:26.479Z,2.63
2023-03-31T19:50:29.206Z,2.67
2023-03-31T19:55:32.251Z,1.23
2023-03-31T20:00:34.955Z,2.13
2023-03-31T20:05:38.118Z,1.48
2023-03-31T20:10:41.936Z,2.30
2023-03-31T20:15:44.857Z,1.67
2023-03-31T20:20:48.199Z,1.88
2023-03-31T20:25:52.024Z,1.95
2023-03-31T20:36:11.185Z,2.63
2023-03-31T20:41:14.962Z,1.67
2023-03-31T20:51:22.389Z,1.77
2023-03-31T20:56:27.898Z,2.17
2023-03-31T21:01:33.614Z,1.92
2023-03-31T21:06:44.983Z,1.20
2023-03-31T21:11:47.807Z,2.17
2023-03-31T21:16:50.639Z,2.20
2023-03-31T21:21:53.410Z,1.20
2023-03-31T21:26:56.332Z,1.60
2023-03-31T21:32:00.028Z,1.87
2023-03-31T21:42:05.349Z,1.42
2023-03-31T21:47:08.197Z,1.58
2023-03-31T21:52:10.899Z,1.73
2023-03-31T21:57:14.042Z,1.83
2023-03-31T22:02:16.906Z,1.20
2023-03-31T22:07:19.625Z,1.03
2023-03-31T22:12:22.433Z,4.95
2023-03-31T22:17:26.314Z,5.63
2023-03-31T22:22:29.123Z,7.05
2023-03-31T22:27:31.981Z,5.10
2023-03-31T22:32:34.719Z,5.17
2023-03-31T22:37:37.572Z,4.97
2023-03-31T22:42:40.254Z,3.73
2023-03-31T22:47:43.004Z,4.47
2023-03-31T22:52:46.384Z,4.70
2023-03-31T22:57:49.160Z,5.35
2023-03-31T23:02:52.174Z,6.33
2023-03-31T23:07:54.944Z,3.78
2023-03-31T23:12:58.036Z,2.30
2023-03-31T23:18:00.860Z,3.53
2023-03-31T23:23:04.056Z,3.50
2023-03-31T23:28:07.488Z,4.18
2023-03-31T23:33:10.301Z,3.45
2023-03-31T23:38:12.957Z,3.65
2023-03-31T23:43:16.767Z,3.83
2023-03-31T23:48:19.632Z,4.40
2023-03-31T23:53:22.492Z,3.85
2023-03-31T23:58:26.588Z,3.70
